Time;durP1;ratioP1;P1;durP2;ratioP2;P2;SDS_P1;SDS_P2;PMS_P1;PMS_P2;Temp;Humidity;BMP_temperature;BMP_pressure;BME280_temperature;BME280_humidity;BME280_pressure;Samples;Min_cycle;Max_cycle;Signal;HPM_P1;HPM_P2
2022/05/25 00:01:43;;;;;;;7.40;5.10;;;10.60;99.90;;;;;;5012857;28;20545;-62
2022/05/25 00:04:09;;;;;;;9.48;5.25;;;10.50;99.90;;;;;;5031365;28;20041;-62
2022/05/25 00:06:35;;;;;;;7.80;5.13;;;10.50;99.90;;;;;;5029821;28;20092;-62
2022/05/25 00:09:01;;;;;;;7.68;4.50;;;10.50;99.90;;;;;;5020904;28;20189;-63
2022/05/25 00:11:27;;;;;;;10.30;5.28;;;10.50;99.90;;;;;;5031940;28;20072;-62
2022/05/25 00:13:53;;;;;;;6.75;5.50;;;10.50;99.90;;;;;;5045113;28;20188;-62
2022/05/25 00:16:19;;;;;;;8.70;5.32;;;10.50;99.90;;;;;;5028232;28;20127;-62
2022/05/25 00:21:31;;;;;;;11.35;5.72;;;10.40;99.90;;;;;;5031325;28;20036;-62
2022/05/25 00:23:57;;;;;;;7.57;5.75;;;10.40;99.90;;;;;;5026901;28;20044;-63
2022/05/25 00:26:23;;;;;;;9.70;5.65;;;10.40;99.90;;;;;;5026559;28;20069;-62
2022/05/25 00:28:48;;;;;;;9.45;5.90;;;10.40;99.90;;;;;;5026699;28;20134;-63
2022/05/25 00:31:14;;;;;;;7.55;5.43;;;10.40;99.90;;;;;;5044894;28;20048;-62
2022/05/25 00:33:40;;;;;;;7.63;5.80;;;10.40;99.90;;;;;;5029317;28;20072;-62
2022/05/25 00:36:06;;;;;;;7.88;5.88;;;10.30;99.90;;;;;;5024324;28;20124;-62
2022/05/25 00:38:32;;;;;;;6.55;5.80;;;10.30;99.90;;;;;;5037038;28;20045;-62
2022/05/25 00:40:58;;;;;;;8.68;6.55;;;10.30;99.90;;;;;;5034626;28;20071;-62
2022/05/25 00:43:24;;;;;;;12.55;6.60;;;10.30;99.90;;;;;;5029468;28;20494;-62
2022/05/25 00:45:57;;;;;;;9.85;6.35;;;10.30;99.90;;;;;;5033424;28;20138;-62
2022/05/25 00:48:38;;;;;;;7.22;6.53;;;10.30;99.90;;;;;;5045885;28;20057;-62
2022/05/25 00:51:12;;;;;;;11.57;6.20;;;10.30;99.90;;;;;;5026736;28;20090;-62
2022/05/25 00:53:43;;;;;;;9.52;6.05;;;10.30;99.90;;;;;;5046373;28;21159;-61
2022/05/25 00:56:14;;;;;;;12.57;7.80;;;10.30;99.90;;;;;;5028960;28;20049;-62
2022/05/25 00:58:47;;;;;;;13.93;7.07;;;10.30;99.90;;;;;;5047121;28;20510;-63
2022/05/25 01:01:13;;;;;;;7.88;6.90;;;10.20;99.90;;;;;;5046254;28;20070;-63
2022/05/25 01:03:39;;;;;;;8.50;7.10;;;10.30;99.90;;;;;;5044546;28;20058;-62
2022/05/25 01:06:21;;;;;;;9.82;7.20;;;10.30;99.90;;;;;;5033411;28;20134;-62
2022/05/25 01:08:50;;;;;;;10.55;7.57;;;10.30;99.90;;;;;;5005829;28;20080;-63
2022/05/25 01:11:38;;;;;;;8.85;7.47;;;10.20;99.90;;;;;;5014072;28;20045;-62
2022/05/25 01:14:28;;;;;;;9.40;6.88;;;10.30;99.90;;;;;;5012805;28;20045;-62
2022/05/25 01:16:54;;;;;;;11.10;6.60;;;10.20;99.90;;;;;;4995218;28;20044;-63
2022/05/25 01:19:29;;;;;;;13.25;7.30;;;10.20;99.90;;;;;;5030350;28;20411;-62
2022/05/25 01:22:05;;;;;;;12.45;7.43;;;10.20;99.90;;;;;;5045514;28;20041;-62
2022/05/25 01:25:11;;;;;;;9.70;6.88;;;10.10;99.90;;;;;;5012062;28;20398;-61
2022/05/25 01:27:48;;;;;;;9.75;7.28;;;10.10;99.90;;;;;;5028165;28;20076;-62
2022/05/25 01:30:39;;;;;;;8.25;7.35;;;10.10;99.90;;;;;;5016375;28;20046;-62
2022/05/25 01:33:42;;;;;;;11.07;7.35;;;10.10;99.90;;;;;;5010652;28;20057;-62
2022/05/25 01:36:18;;;;;;;12.18;7.97;;;10.10;99.90;;;;;;5027190;28;20072;-62
2022/05/25 01:39:08;;;;;;;10.75;7.35;;;10.10;99.90;;;;;;5012600;28;20067;-62
2022/05/25 01:41:56;;;;;;;9.50;7.07;;;10.10;99.90;;;;;;5029458;28;20049;-62
2022/05/25 01:44:36;;;;;;;10.25;8.38;;;10.00;99.90;;;;;;5009815;28;20049;-62
2022/05/25 01:47:05;;;;;;;11.35;7.93;;;10.00;99.90;;;;;;5011229;28;20045;-62
2022/05/25 01:50:14;;;;;;;14.85;8.05;;;10.00;99.90;;;;;;5032685;28;20132;-63
2022/05/25 01:52:44;;;;;;;10.80;8.18;;;10.00;99.90;;;;;;4948816;28;20051;-63
2022/05/25 01:55:26;;;;;;;9.38;7.78;;;10.00;99.90;;;;;;4940043;28;20169;-61
2022/05/25 01:57:56;;;;;;;11.70;8.05;;;9.90;99.90;;;;;;4987381;28;20137;-61
2022/05/25 02:00:29;;;;;;;11.85;9.02;;;9.90;99.90;;;;;;5035733;28;20434;-61
2022/05/25 02:06:03;;;;;;;14.88;9.70;;;9.90;99.90;;;;;;5027151;28;20049;-62
2022/05/25 02:08:41;;;;;;;12.48;8.73;;;9.80;99.90;;;;;;5044675;28;20071;-61
2022/05/25 02:11:24;;;;;;;13.60;10.02;;;9.80;99.90;;;;;;5017108;28;20090;-62
2022/05/25 02:14:12;;;;;;;12.75;9.63;;;9.80;99.90;;;;;;5043201;28;20495;-62
2022/05/25 02:16:56;;;;;;;13.02;10.95;;;9.80;99.90;;;;;;5027780;28;20065;-62
2022/05/25 02:19:31;;;;;;;12.95;10.32;;;9.80;99.90;;;;;;5013392;28;20114;-62
2022/05/25 02:22:20;;;;;;;12.68;10.00;;;9.80;99.90;;;;;;5039256;28;20047;-61
2022/05/25 02:24:59;;;;;;;11.05;9.73;;;9.70;99.90;;;;;;5022839;28;21373;-62
2022/05/25 02:27:31;;;;;;;13.73;10.63;;;9.80;99.90;;;;;;5028697;28;20048;-62
2022/05/25 02:30:13;;;;;;;12.43;10.20;;;9.70;99.90;;;;;;5026792;28;20127;-62
2022/05/25 02:32:53;;;;;;;12.18;10.18;;;9.70;99.90;;;;;;5032058;28;20229;-62
2022/05/25 02:35:21;;;;;;;15.02;11.15;;;9.70;99.90;;;;;;5027034;28;20670;-61
2022/05/25 02:37:50;;;;;;;12.30;10.90;;;9.70;99.90;;;;;;5029143;28;20048;-62
2022/05/25 02:40:16;;;;;;;15.98;11.32;;;9.60;99.90;;;;;;5027309;28;20048;-62
2022/05/25 02:42:42;;;;;;;15.60;11.15;;;9.60;99.90;;;;;;5025693;28;20593;-62
2022/05/25 02:45:10;;;;;;;17.63;11.82;;;9.60;99.90;;;;;;5023287;28;20052;-62
2022/05/25 02:47:37;;;;;;;15.60;11.82;;;9.60;99.90;;;;;;5045034;28;20127;-61
2022/05/25 02:50:04;;;;;;;17.02;12.25;;;9.60;99.90;;;;;;5033811;28;20176;-62
2022/05/25 02:52:30;;;;;;;19.40;12.93;;;9.60;99.90;;;;;;5045625;28;20041;-62
2022/05/25 02:54:56;;;;;;;15.07;11.90;;;9.60;99.90;;;;;;5045053;28;20037;-62
2022/05/25 02:57:22;;;;;;;15.57;12.73;;;9.60;99.90;;;;;;5015035;28;20059;-62
2022/05/25 02:59:48;;;;;;;14.13;12.23;;;9.60;99.90;;;;;;5044097;28;20055;-62
2022/05/25 03:02:14;;;;;;;17.63;12.70;;;9.60;99.90;;;;;;5025466;28;20049;-62
2022/05/25 03:04:42;;;;;;;15.52;12.15;;;9.50;99.90;;;;;;5018250;28;20087;-62
2022/05/25 03:07:09;;;;;;;17.45;13.20;;;9.50;99.90;;;;;;5019898;28;20187;-62
2022/05/25 03:09:36;;;;;;;20.65;13.65;;;9.50;99.90;;;;;;5010444;28;20056;-62
2022/05/25 03:12:06;;;;;;;17.10;13.15;;;9.50;99.90;;;;;;5008499;28;20080;-62
2022/05/25 03:14:32;;;;;;;23.40;13.30;;;9.50;99.90;;;;;;5010060;28;20124;-61
2022/05/25 03:17:04;;;;;;;22.33;13.65;;;9.50;99.90;;;;;;5025866;28;20120;-63
2022/05/25 03:19:30;;;;;;;21.27;13.70;;;9.50;99.90;;;;;;5026663;28;20047;-62
2022/05/25 03:21:56;;;;;;;17.85;13.55;;;9.50;99.90;;;;;;5007690;28;20045;-62
2022/05/25 03:24:22;;;;;;;22.13;14.88;;;9.50;99.90;;;;;;4981572;28;20076;-62
2022/05/25 03:26:48;;;;;;;22.48;14.50;;;9.50;99.90;;;;;;5006403;28;20072;-63
2022/05/25 03:29:17;;;;;;;20.58;14.23;;;9.40;99.90;;;;;;4999908;28;20049;-62
2022/05/25 03:31:43;;;;;;;21.55;15.77;;;9.50;99.90;;;;;;5021949;28;20498;-62
2022/05/25 03:34:09;;;;;;;21.95;14.02;;;9.40;99.90;;;;;;5022485;28;20140;-61
2022/05/25 03:36:35;;;;;;;19.98;14.50;;;9.40;99.90;;;;;;5005084;28;20053;-63
2022/05/25 03:39:01;;;;;;;22.65;14.80;;;9.40;99.90;;;;;;5024835;28;20053;-62
2022/05/25 03:41:27;;;;;;;19.15;15.00;;;9.40;99.90;;;;;;5003577;28;20388;-62
2022/05/25 03:43:53;;;;;;;22.75;14.80;;;9.40;99.90;;;;;;4989808;28;20114;-62
2022/05/25 03:46:19;;;;;;;23.67;14.98;;;9.40;99.90;;;;;;5006670;28;20048;-62
2022/05/25 03:48:44;;;;;;;18.83;14.85;;;9.40;99.90;;;;;;5009592;28;20490;-62
2022/05/25 03:51:10;;;;;;;21.20;14.65;;;9.40;99.90;;;;;;5026717;28;20044;-61
2022/05/25 03:53:36;;;;;;;19.30;14.63;;;9.40;99.90;;;;;;5014485;28;20072;-62
2022/05/25 03:56:04;;;;;;;20.48;14.50;;;9.40;99.90;;;;;;5010973;28;20499;-62
2022/05/25 03:58:29;;;;;;;24.48;14.90;;;9.40;99.90;;;;;;5021642;28;20049;-63
2022/05/25 04:00:55;;;;;;;20.13;14.38;;;9.40;99.90;;;;;;5008532;28;20094;-62
2022/05/25 04:03:22;;;;;;;24.48;14.20;;;9.40;99.90;;;;;;5009232;28;20080;-61
2022/05/25 04:05:48;;;;;;;21.15;15.52;;;9.40;99.90;;;;;;5012944;28;20085;-62
2022/05/25 04:08:14;;;;;;;21.42;15.18;;;9.40;99.90;;;;;;5023107;28;20059;-62
2022/05/25 04:10:40;;;;;;;21.60;14.80;;;9.40;99.90;;;;;;5041184;28;20052;-62
2022/05/25 04:13:06;;;;;;;26.27;16.40;;;9.40;99.90;;;;;;5019330;28;20044;-62
2022/05/25 04:15:34;;;;;;;25.15;15.60;;;9.40;99.90;;;;;;5045280;28;20049;-62
2022/05/25 04:18:00;;;;;;;20.05;15.10;;;9.50;99.90;;;;;;5016195;28;20051;-62
2022/05/25 04:20:29;;;;;;;20.70;14.60;;;9.50;99.90;;;;;;5044877;28;21220;-63
2022/05/25 04:22:55;;;;;;;20.95;14.82;;;9.50;99.90;;;;;;5041813;28;20041;-62
2022/05/25 04:25:23;;;;;;;25.85;14.52;;;9.50;99.90;;;;;;5041208;28;20052;-61
2022/05/25 04:27:52;;;;;;;25.05;16.25;;;9.50;99.90;;;;;;5042661;28;20044;-62
2022/05/25 04:30:21;;;;;;;21.75;15.35;;;9.50;99.90;;;;;;5026374;28;20075;-63
2022/05/25 04:32:47;;;;;;;22.08;14.02;;;9.60;99.90;;;;;;5043023;28;20057;-61
2022/05/25 04:35:15;;;;;;;20.38;14.95;;;9.60;99.90;;;;;;5045169;28;20037;-62
2022/05/25 04:37:52;;;;;;;21.27;14.88;;;9.60;99.90;;;;;;5045410;28;20041;-62
2022/05/25 04:40:30;;;;;;;21.48;14.75;;;9.60;99.90;;;;;;5018897;28;20831;-62
2022/05/25 04:42:58;;;;;;;20.02;14.48;;;9.70;99.90;;;;;;5029456;28;20091;-61
2022/05/25 04:45:26;;;;;;;23.25;14.80;;;9.70;99.90;;;;;;5046479;28;20048;-62
2022/05/25 04:47:53;;;;;;;23.95;15.00;;;9.80;99.90;;;;;;5018800;28;20045;-61
2022/05/25 04:50:20;;;;;;;23.10;15.15;;;9.80;99.90;;;;;;5044164;28;20044;-60
2022/05/25 04:52:46;;;;;;;21.20;14.48;;;9.80;99.90;;;;;;5029198;28;20048;-62
2022/05/25 04:57:19;;;;;;;18.00;13.93;;;9.90;99.90;;;;;;5046013;28;20097;-62
2022/05/25 04:57:59;;;;;;;23.33;14.98;;;9.90;99.90;;;;;;5045754;28;20139;-62
2022/05/25 05:00:26;;;;;;;21.90;14.68;;;9.90;99.90;;;;;;5028619;28;20040;-62
2022/05/25 05:02:52;;;;;;;18.58;14.02;;;10.00;99.90;;;;;;5036261;28;20044;-61
2022/05/25 05:05:18;;;;;;;22.67;14.50;;;10.00;99.90;;;;;;5024962;28;20491;-60
2022/05/25 05:07:44;;;;;;;20.15;14.70;;;10.10;99.90;;;;;;5033264;28;20059;-61
2022/05/25 05:10:10;;;;;;;20.83;14.02;;;10.10;99.90;;;;;;5045377;28;20044;-59
2022/05/25 05:12:36;;;;;;;20.40;14.10;;;10.20;99.90;;;;;;5023938;28;20041;-61
2022/05/25 05:15:03;;;;;;;20.20;13.57;;;10.20;99.90;;;;;;5026144;28;20081;-59
2022/05/25 05:17:29;;;;;;;19.98;13.27;;;10.30;99.90;;;;;;5019522;28;20217;-60
2022/05/25 05:19:56;;;;;;;20.58;13.85;;;10.30;99.90;;;;;;5026632;28;20041;-59
2022/05/25 05:22:22;;;;;;;19.25;13.43;;;10.40;99.90;;;;;;5017985;28;20637;-62
2022/05/25 05:24:48;;;;;;;18.88;14.23;;;10.50;99.90;;;;;;5034919;28;20133;-60
2022/05/25 05:27:14;;;;;;;19.20;13.95;;;10.50;99.90;;;;;;5050638;28;20144;-62
2022/05/25 05:29:40;;;;;;;19.67;13.52;;;10.50;99.90;;;;;;5047915;28;20119;-61
2022/05/25 05:32:10;;;;;;;20.27;14.52;;;10.60;99.90;;;;;;5029229;28;20775;-60
2022/05/25 05:34:36;;;;;;;20.58;13.88;;;10.70;99.90;;;;;;5027205;28;20044;-60
2022/05/25 05:37:28;;;;;;;19.40;13.77;;;10.70;99.90;;;;;;5017038;28;20089;-62
2022/05/25 05:39:55;;;;;;;18.60;13.27;;;10.80;99.90;;;;;;5025221;28;20202;-62
2022/05/25 05:42:24;;;;;;;17.77;13.50;;;10.90;99.90;;;;;;5040193;28;20045;-62
2022/05/25 05:44:57;;;;;;;18.38;13.65;;;11.00;99.90;;;;;;5022271;28;20037;-60
2022/05/25 05:47:35;;;;;;;18.42;12.93;;;11.00;99.90;;;;;;5047290;28;20041;-62
2022/05/25 05:50:05;;;;;;;24.02;15.18;;;11.10;99.90;;;;;;5041653;28;20044;-60
2022/05/25 05:52:30;;;;;;;17.27;12.88;;;11.20;99.90;;;;;;5045008;28;20080;-59
2022/05/25 05:54:57;;;;;;;20.95;13.40;;;11.20;99.90;;;;;;5029136;28;20545;-60
2022/05/25 05:57:23;;;;;;;20.52;12.70;;;11.30;99.90;;;;;;5030832;28;20068;-60
2022/05/25 05:59:49;;;;;;;17.90;12.10;;;11.40;99.90;;;;;;5030028;28;20044;-60
2022/05/25 06:02:15;;;;;;;16.98;12.23;;;11.50;99.90;;;;;;5025876;28;20064;-60
2022/05/25 06:04:41;;;;;;;18.48;12.13;;;11.60;99.90;;;;;;5032663;28;20044;-60
2022/05/25 06:07:07;;;;;;;15.95;12.35;;;11.70;99.90;;;;;;5029714;28;20237;-61
2022/05/25 06:09:33;;;;;;;16.35;12.13;;;11.70;99.90;;;;;;5044958;28;20164;-60
2022/05/25 06:11:58;;;;;;;25.58;12.07;;;11.80;99.90;;;;;;5037105;28;20045;-60
2022/05/25 06:14:25;;;;;;;18.58;12.10;;;11.90;99.90;;;;;;5040035;28;20045;-60
2022/05/25 06:19:37;;;;;;;15.98;12.00;;;12.00;99.90;;;;;;5032813;28;20182;-61
2022/05/25 06:22:04;;;;;;;20.67;11.95;;;12.10;99.90;;;;;;5038461;28;20036;-60
2022/05/25 06:24:38;;;;;;;13.63;10.95;;;12.20;99.90;;;;;;5048013;28;20044;-60
2022/05/25 06:27:07;;;;;;;15.52;11.15;;;12.30;99.90;;;;;;5040273;28;20075;-60
2022/05/25 06:29:38;;;;;;;16.80;11.75;;;12.40;99.90;;;;;;5049912;28;20483;-60
2022/05/25 06:32:06;;;;;;;14.63;10.90;;;12.50;99.90;;;;;;5047917;28;20471;-61
2022/05/25 06:34:33;;;;;;;14.45;11.18;;;12.60;99.90;;;;;;5045079;28;20059;-60
2022/05/25 06:36:59;;;;;;;13.77;9.85;;;12.60;99.90;;;;;;5048965;28;20514;-61
2022/05/25 06:39:25;;;;;;;14.80;9.93;;;12.70;99.90;;;;;;5035655;28;20041;-60
2022/05/25 06:41:51;;;;;;;11.38;9.50;;;12.90;99.90;;;;;;5050340;28;20470;-60
2022/05/25 06:44:17;;;;;;;13.40;9.27;;;13.00;99.90;;;;;;5028892;28;20056;-61
2022/05/25 06:46:44;;;;;;;20.73;9.57;;;13.10;99.90;;;;;;5016536;28;20510;-60
2022/05/25 06:49:10;;;;;;;13.02;9.65;;;13.20;99.90;;;;;;5049094;28;20048;-60
2022/05/25 06:51:36;;;;;;;13.35;9.82;;;13.30;99.90;;;;;;5044263;28;20520;-60
2022/05/25 06:54:02;;;;;;;15.52;9.07;;;13.40;99.90;;;;;;5045099;28;22545;-61
2022/05/25 06:56:28;;;;;;;12.98;8.35;;;13.50;99.90;;;;;;5030922;28;20037;-60
2022/05/25 06:58:56;;;;;;;10.50;8.13;;;13.60;99.90;;;;;;5030540;28;20577;-60
2022/05/25 07:01:23;;;;;;;10.93;7.95;;;13.70;99.90;;;;;;5030413;28;20045;-60
2022/05/25 07:03:52;;;;;;;12.65;9.02;;;13.80;99.90;;;;;;5026669;28;20045;-60
2022/05/25 07:06:19;;;;;;;10.57;7.82;;;13.90;99.90;;;;;;5039828;28;20090;-60
2022/05/25 07:08:45;;;;;;;10.55;7.65;;;14.00;99.90;;;;;;5029940;28;20601;-60
2022/05/25 07:11:12;;;;;;;8.48;7.20;;;14.20;99.90;;;;;;5037557;28;20056;-60
2022/05/25 07:13:39;;;;;;;10.95;6.28;;;14.30;99.90;;;;;;5027420;28;20037;-61
2022/05/25 07:16:08;;;;;;;12.25;6.65;;;14.40;99.90;;;;;;5048895;28;20478;-60
2022/05/25 07:18:34;;;;;;;13.45;6.88;;;14.40;99.90;;;;;;5028413;28;20391;-60
2022/05/25 07:21:12;;;;;;;10.90;7.97;;;14.40;99.90;;;;;;5038899;28;20045;-60
2022/05/25 07:23:40;;;;;;;10.00;6.97;;;14.50;99.90;;;;;;5047646;28;20041;-61
2022/05/25 07:26:07;;;;;;;11.95;7.88;;;14.60;99.90;;;;;;5031115;28;20095;-59
2022/05/25 07:28:35;;;;;;;11.38;5.85;;;14.60;99.90;;;;;;5021549;28;20498;-60
2022/05/25 07:31:05;;;;;;;11.55;6.47;;;14.80;99.90;;;;;;5040263;28;20044;-61
2022/05/25 07:33:33;;;;;;;10.43;6.70;;;14.90;99.90;;;;;;5046463;28;20053;-61
2022/05/25 07:35:59;;;;;;;10.80;7.45;;;15.00;99.90;;;;;;5039852;28;20045;-60
2022/05/25 07:38:28;;;;;;;9.48;6.65;;;15.10;99.90;;;;;;5030950;28;20110;-60
2022/05/25 07:40:55;;;;;;;9.15;5.55;;;15.20;99.90;;;;;;5047010;28;20387;-60
2022/05/25 07:43:24;;;;;;;7.63;5.45;;;15.30;99.90;;;;;;5046321;28;20048;-60
2022/05/25 07:45:50;;;;;;;8.45;6.20;;;15.30;99.90;;;;;;5026141;28;20175;-59
2022/05/25 07:48:16;;;;;;;8.68;6.05;;;15.50;99.90;;;;;;5050110;28;20046;-60
2022/05/25 07:50:43;;;;;;;15.05;6.03;;;15.60;99.90;;;;;;5048896;28;20044;-59
2022/05/25 07:55:59;;;;;;;6.70;5.75;;;15.80;99.90;;;;;;5047251;28;20037;-62
2022/05/25 07:58:25;;;;;;;7.10;5.45;;;15.90;99.90;;;;;;5035385;28;20506;-62
2022/05/25 08:00:53;;;;;;;8.90;5.80;;;16.00;99.90;;;;;;5030446;28;20064;-62
2022/05/25 08:06:04;;;;;;;10.75;5.90;;;16.00;99.90;;;;;;5049248;28;20076;-61
2022/05/25 08:08:30;;;;;;;9.88;5.00;;;16.10;99.90;;;;;;5033942;28;20061;-62
2022/05/25 08:11:11;;;;;;;9.40;4.95;;;16.20;99.90;;;;;;5043731;28;20060;-62
2022/05/25 08:13:42;;;;;;;7.80;5.70;;;16.30;99.90;;;;;;5039801;28;20139;-62
2022/05/25 08:16:08;;;;;;;8.48;6.00;;;16.40;99.90;;;;;;5032154;28;20410;-62
2022/05/25 08:18:34;;;;;;;9.20;5.63;;;16.40;99.90;;;;;;5050871;28;20045;-62
2022/05/25 08:21:00;;;;;;;8.23;5.90;;;16.40;99.90;;;;;;5049029;28;20106;-62
2022/05/25 08:23:26;;;;;;;9.82;5.70;;;16.40;99.90;;;;;;5032144;28;20063;-62
2022/05/25 08:25:52;;;;;;;8.00;5.30;;;16.50;99.90;;;;;;5051349;28;20040;-62
2022/05/25 08:28:18;;;;;;;8.05;5.80;;;16.50;99.90;;;;;;5041036;28;20044;-62
2022/05/25 08:30:45;;;;;;;6.68;5.47;;;16.60;99.90;;;;;;5037014;28;20056;-62
2022/05/25 08:33:11;;;;;;;8.20;6.15;;;16.60;99.90;;;;;;5034107;28;20502;-62
2022/05/25 08:35:37;;;;;;;10.88;6.55;;;16.60;99.90;;;;;;5050307;28;20037;-62
2022/05/25 08:38:04;;;;;;;5.78;4.07;;;16.70;99.90;;;;;;5036087;28;20044;-62
2022/05/25 08:40:32;;;;;;;6.13;4.88;;;16.80;99.90;;;;;;5038036;28;20083;-62
2022/05/25 08:43:07;;;;;;;6.55;4.63;;;16.90;99.90;;;;;;5035142;28;20048;-62
2022/05/25 08:45:41;;;;;;;10.65;4.65;;;17.00;99.90;;;;;;5038028;28;20421;-62
2022/05/25 08:48:09;;;;;;;5.10;4.35;;;17.10;99.90;;;;;;5038742;28;20056;-62
2022/05/25 08:50:36;;;;;;;9.63;4.68;;;17.20;99.90;;;;;;5053112;28;20044;-61
2022/05/25 08:53:04;;;;;;;9.48;4.57;;;17.30;99.90;;;;;;5054706;28;20048;-62
2022/05/25 08:55:45;;;;;;;7.15;4.20;;;17.30;99.90;;;;;;5053788;28;20553;-62
2022/05/25 08:58:13;;;;;;;7.15;4.18;;;17.20;99.90;;;;;;5045798;28;20047;-62
2022/05/25 09:00:43;;;;;;;7.10;4.22;;;17.30;99.90;;;;;;5030653;28;20044;-62
2022/05/25 09:03:33;;;;;;;6.53;3.95;;;17.40;99.90;;;;;;5032439;28;20054;-62
2022/05/25 09:06:13;;;;;;;5.10;3.65;;;17.50;99.90;;;;;;5044558;28;20048;-62
2022/05/25 09:09:03;;;;;;;5.65;3.40;;;17.60;99.90;;;;;;5053117;28;20060;-61
2022/05/25 09:11:52;;;;;;;5.45;3.78;;;17.60;99.90;;;;;;5069723;28;20510;-61
2022/05/25 09:14:28;;;;;;;5.88;3.45;;;17.60;99.90;;;;;;5049990;28;20658;-63
2022/05/25 09:16:57;;;;;;;4.18;3.47;;;17.50;99.90;;;;;;5039539;28;20048;-62
2022/05/25 09:19:31;;;;;;;5.57;3.60;;;17.60;99.80;;;;;;5052663;28;20040;-61
2022/05/25 09:22:01;;;;;;;7.63;3.35;;;17.60;99.80;;;;;;5036644;28;20045;-62
2022/05/25 09:24:28;;;;;;;4.50;3.38;;;17.70;99.70;;;;;;5040286;28;20071;-62
2022/05/25 09:26:54;;;;;;;8.45;3.00;;;17.90;99.50;;;;;;5027098;28;20044;-62
2022/05/25 09:29:23;;;;;;;8.10;3.40;;;18.10;99.60;;;;;;5035329;28;20106;-62
2022/05/25 09:31:59;;;;;;;3.78;3.13;;;18.20;99.80;;;;;;5041991;28;20084;-62
2022/05/25 09:34:38;;;;;;;6.05;3.60;;;18.40;99.60;;;;;;5049634;28;20052;-62
2022/05/25 09:37:35;;;;;;;7.43;3.13;;;18.40;99.10;;;;;;5036999;28;20052;-62
2022/05/25 09:40:10;;;;;;;4.80;2.80;;;18.40;98.60;;;;;;5032990;28;20048;-63
2022/05/25 09:42:37;;;;;;;8.50;3.05;;;18.40;98.30;;;;;;5035530;28;20125;-61
2022/05/25 09:45:17;;;;;;;6.00;3.33;;;18.30;97.90;;;;;;5032083;28;20103;-61
2022/05/25 09:47:46;;;;;;;3.95;3.28;;;18.30;98.10;;;;;;5038636;28;20048;-62
2022/05/25 09:50:26;;;;;;;4.38;3.45;;;18.20;98.00;;;;;;5036455;28;20549;-62
2022/05/25 09:52:53;;;;;;;4.55;3.30;;;18.20;97.80;;;;;;5051529;28;20131;-62
2022/05/25 09:55:42;;;;;;;4.47;3.25;;;18.20;98.10;;;;;;5041965;28;20040;-62
2022/05/25 09:58:46;;;;;;;5.03;3.40;;;18.20;97.60;;;;;;5038730;28;20056;-62
2022/05/25 10:01:32;;;;;;;5.78;2.97;;;18.30;97.90;;;;;;5050467;28;20518;-62
2022/05/25 10:04:01;;;;;;;4.25;3.03;;;18.60;97.80;;;;;;5035110;28;20052;-62
2022/05/25 10:06:29;;;;;;;5.85;3.95;;;18.80;97.10;;;;;;5022887;28;20507;-62
2022/05/25 10:09:24;;;;;;;5.80;4.18;;;18.90;96.30;;;;;;5051934;28;20156;-61
2022/05/25 10:11:53;;;;;;;8.70;3.50;;;18.80;96.00;;;;;;5054443;28;20090;-62
2022/05/25 10:14:30;;;;;;;7.72;3.72;;;18.70;96.30;;;;;;5040970;28;20544;-62
2022/05/25 10:17:10;;;;;;;6.72;3.30;;;18.70;96.10;;;;;;5052903;28;20477;-62
2022/05/25 10:19:47;;;;;;;5.13;3.47;;;18.60;96.30;;;;;;5044230;28;20037;-62
2022/05/25 10:22:46;;;;;;;6.85;3.25;;;18.40;96.40;;;;;;5033826;28;20348;-62
2022/05/25 10:25:42;;;;;;;4.15;3.17;;;18.20;96.10;;;;;;4994807;28;20044;-62
2022/05/25 10:28:26;;;;;;;7.25;3.53;;;18.00;95.60;;;;;;5052523;28;20103;-62
2022/05/25 10:37:06;;;;;;;6.28;3.90;;;17.70;97.30;;;;;;4990368;28;20559;-62
2022/05/25 10:39:39;;;;;;;5.53;4.35;;;17.70;97.30;;;;;;5019784;28;20585;-62
2022/05/25 10:42:09;;;;;;;10.75;4.25;;;17.70;97.50;;;;;;5030377;28;20818;-62
2022/05/25 10:44:42;;;;;;;8.70;4.80;;;17.70;97.50;;;;;;5046915;28;20478;-62
2022/05/25 10:47:24;;;;;;;5.55;4.00;;;17.80;98.00;;;;;;5046874;28;21087;-62
2022/05/25 10:49:52;;;;;;;5.45;3.80;;;17.80;97.40;;;;;;5050568;28;20479;-61
2022/05/25 10:52:47;;;;;;;8.07;3.92;;;17.80;97.60;;;;;;5047530;28;20134;-62
2022/05/25 10:55:13;;;;;;;6.55;4.25;;;17.80;97.00;;;;;;5043869;28;20493;-62
2022/05/25 10:58:03;;;;;;;7.75;3.90;;;17.70;96.90;;;;;;5030489;28;20487;-62
2022/05/25 11:00:57;;;;;;;4.25;3.63;;;17.60;96.80;;;;;;5050631;28;20076;-62
2022/05/25 11:03:41;;;;;;;7.25;3.72;;;17.50;97.40;;;;;;5031211;28;20053;-62
2022/05/25 11:06:47;;;;;;;21.45;3.92;;;17.30;98.00;;;;;;5051234;28;20094;-62
2022/05/25 11:09:36;;;;;;;13.75;3.75;;;17.20;98.00;;;;;;5017553;28;20123;-62
2022/05/25 11:12:40;;;;;;;5.47;3.00;;;16.80;98.70;;;;;;5031611;28;20075;-62
2022/05/25 11:15:13;;;;;;;3.97;2.10;;;16.40;99.60;;;;;;5022313;28;20032;-62
2022/05/25 11:17:59;;;;;;;4.78;2.03;;;16.10;99.90;;;;;;5033000;28;21142;-62
2022/05/25 11:20:33;;;;;;;3.35;1.70;;;15.90;99.90;;;;;;5048922;28;20045;-62
2022/05/25 11:23:28;;;;;;;3.90;1.80;;;15.90;99.90;;;;;;5029638;28;20522;-61
2022/05/25 11:27:01;;;;;;;2.35;1.55;;;16.00;99.90;;;;;;5045738;28;20073;-61
2022/05/25 11:29:46;;;;;;;1.63;1.30;;;16.30;99.90;;;;;;4980168;28;20242;-61
2022/05/25 11:32:29;;;;;;;2.05;1.60;;;16.80;99.90;;;;;;4994270;28;20085;-61
2022/05/25 11:35:11;;;;;;;2.88;1.90;;;17.10;99.90;;;;;;5020666;28;20057;-61
2022/05/25 11:38:07;;;;;;;4.18;2.30;;;17.30;99.90;;;;;;5054120;28;20053;-61
2022/05/25 11:41:02;;;;;;;4.75;2.80;;;17.40;99.90;;;;;;5043981;28;20113;-62
2022/05/25 11:43:36;;;;;;;5.18;3.42;;;17.60;99.90;;;;;;5053286;28;20445;-61
2022/05/25 11:46:02;;;;;;;6.82;4.10;;;17.90;99.90;;;;;;5048128;28;20053;-61
2022/05/25 11:48:38;;;;;;;4.70;4.20;;;18.40;99.90;;;;;;5037027;28;20044;-61
2022/05/25 11:51:25;;;;;;;6.90;5.43;;;18.80;99.90;;;;;;5037902;28;20479;-61
2022/05/25 11:53:56;;;;;;;9.40;5.38;;;19.30;99.90;;;;;;5036554;28;20045;-61
2022/05/25 11:56:41;;;;;;;8.02;6.03;;;19.60;99.90;;;;;;5051548;28;20126;-61
2022/05/25 11:59:30;;;;;;;7.90;6.10;;;19.60;99.60;;;;;;5045278;28;20593;-61
2022/05/25 12:02:18;;;;;;;8.27;6.63;;;19.50;99.90;;;;;;4994505;28;20136;-61
2022/05/25 12:05:08;;;;;;;8.65;6.30;;;19.40;99.70;;;;;;5042175;28;20049;-61
2022/05/25 12:08:12;;;;;;;7.10;4.95;;;19.20;99.30;;;;;;5054425;28;20139;-61
2022/05/25 12:10:40;;;;;;;4.38;1.95;;;19.10;99.10;;;;;;5038870;28;20070;-61
2022/05/25 12:13:48;;;;;;;3.72;1.25;;;19.00;97.40;;;;;;5042541;28;20060;-61
2022/05/25 12:16:24;;;;;;;4.63;1.70;;;19.00;95.00;;;;;;5041510;28;20133;-61
2022/05/25 12:18:56;;;;;;;8.45;4.53;;;18.80;94.50;;;;;;5056765;28;20093;-61
2022/05/25 12:21:41;;;;;;;;;;;18.90;95.70;;;;;;5024210;28;20047;-61
2022/05/25 12:24:13;;;;;;;8.25;4.50;;;18.90;96.50;;;;;;5051727;28;20405;-61
2022/05/25 12:26:39;;;;;;;7.78;4.00;;;19.00;96.20;;;;;;5039158;28;20052;-61
2022/05/25 12:29:30;;;;;;;5.97;3.60;;;19.00;96.20;;;;;;5038713;28;20501;-61
2022/05/25 12:31:57;;;;;;;6.00;3.05;;;19.00;95.10;;;;;;5057089;28;20127;-61
2022/05/25 12:34:53;;;;;;;7.38;2.92;;;18.90;95.30;;;;;;5033976;28;20596;-62
2022/05/25 12:37:34;;;;;;;7.38;3.00;;;18.80;95.30;;;;;;5040153;28;20040;-61
2022/05/25 12:40:05;;;;;;;9.30;1.60;;;18.80;96.00;;;;;;5051771;28;20068;-61
2022/05/25 12:42:34;;;;;;;3.85;1.00;;;18.90;94.40;;;;;;5038826;28;20048;-61
2022/05/25 12:50:53;;;;;;;6.72;0.98;;;19.10;87.40;;;;;;5046427;28;20047;-60
2022/05/25 12:54:01;;;;;;;7.72;1.00;;;19.10;87.20;;;;;;5047471;28;20068;-61
2022/05/25 12:56:26;;;;;;;1.70;0.80;;;19.30;86.40;;;;;;4937712;28;20137;-61
2022/05/25 12:58:58;;;;;;;7.00;1.00;;;19.40;84.70;;;;;;5016429;28;20127;-61
2022/05/25 13:01:26;;;;;;;5.85;0.90;;;19.40;84.00;;;;;;5056014;28;20862;-60
2022/05/25 13:03:54;;;;;;;3.90;0.80;;;19.50;79.80;;;;;;5048412;28;20106;-61
2022/05/25 13:06:43;;;;;;;7.03;0.80;;;19.50;78.30;;;;;;5051594;28;20056;-61
2022/05/25 13:09:11;;;;;;;3.40;0.98;;;19.70;80.20;;;;;;5052132;28;20053;-61
2022/05/25 13:11:43;;;;;;;3.83;0.93;;;20.00;78.70;;;;;;5050929;28;21368;-60
2022/05/25 13:14:22;;;;;;;9.35;1.20;;;20.10;77.50;;;;;;5048178;28;20041;-61
2022/05/25 13:16:53;;;;;;;4.35;1.20;;;20.20;76.00;;;;;;5043654;28;20045;-61
2022/05/25 13:19:43;;;;;;;7.00;1.00;;;20.20;75.00;;;;;;5049331;28;20045;-61
2022/05/25 13:22:20;;;;;;;4.05;0.95;;;20.10;73.30;;;;;;5022100;28;20083;-60
2022/05/25 13:25:22;;;;;;;9.25;1.10;;;20.00;72.40;;;;;;5028057;28;20044;-61
2022/05/25 13:28:13;;;;;;;2.00;0.90;;;20.00;72.20;;;;;;5048775;28;20037;-60
2022/05/25 13:30:39;;;;;;;2.70;0.80;;;19.90;72.30;;;;;;5045847;28;20040;-61
2022/05/25 13:33:19;;;;;;;6.75;0.90;;;19.70;71.60;;;;;;5046324;28;20071;-61
2022/05/25 13:35:56;;;;;;;6.85;1.00;;;19.50;71.50;;;;;;5047786;28;20041;-61
2022/05/25 13:38:32;;;;;;;3.63;0.90;;;19.30;70.70;;;;;;5048579;28;20055;-61